Time;durP1;ratioP1;P1;durP2;ratioP2;P2;SDS_P1;SDS_P2;PMS_P1;PMS_P2;Temp;Humidity;BMP_temperature;BMP_pressure;BME280_temperature;BME280_humidity;BME280_pressure;Samples;Min_cycle;Max_cycle;Signal;HPM_P1;HPM_P2
2023/05/30 00:01:06;;;;;;;5.60;3.00;;;;;;;18.14;100.00;100337.31;5016575;28;20052;-74
2023/05/30 00:03:37;;;;;;;5.97;3.35;;;;;;;18.13;100.00;100328.47;5017658;28;20033;-74
2023/05/30 00:06:03;;;;;;;5.20;3.42;;;;;;;18.12;100.00;100328.50;5013048;28;20044;-73
2023/05/30 00:08:29;;;;;;;8.50;3.50;;;;;;;18.06;100.00;100328.72;5015943;28;20029;-74
2023/05/30 00:10:55;;;;;;;6.25;3.35;;;;;;;17.98;100.00;100330.75;5020608;28;20030;-74
2023/05/30 00:13:20;;;;;;;12.38;3.55;;;;;;;18.05;100.00;100327.88;5016420;28;20414;-74
2023/05/30 00:15:47;;;;;;;5.47;3.42;;;;;;;18.04;100.00;100319.94;5010616;28;20088;-73
2023/05/30 00:18:13;;;;;;;4.38;2.63;;;;;;;17.89;100.00;100324.81;4997627;28;20091;-74
2023/05/30 00:20:39;;;;;;;6.18;3.75;;;;;;;17.81;100.00;100328.63;5004549;28;20033;-74
2023/05/30 00:23:04;;;;;;;6.75;3.67;;;;;;;17.78;100.00;100315.44;4997337;28;20026;-74
2023/05/30 00:25:32;;;;;;;7.85;4.93;;;;;;;17.85;100.00;100328.50;5020834;28;20149;-73
2023/05/30 00:27:58;;;;;;;6.40;3.58;;;;;;;17.82;100.00;100328.59;5018370;28;20030;-73
2023/05/30 00:30:25;;;;;;;8.77;4.28;;;;;;;17.79;100.00;100330.44;5009219;28;20040;-73
2023/05/30 00:32:50;;;;;;;5.03;2.67;;;;;;;17.76;100.00;100326.09;5017369;28;20717;-74
2023/05/30 00:35:16;;;;;;;6.97;4.15;;;;;;;17.53;100.00;100289.63;5025046;28;20032;-73
2023/05/30 00:37:41;;;;;;;5.35;3.17;;;;;;;17.50;100.00;100292.41;5022842;28;20108;-75
2023/05/30 00:40:08;;;;;;;6.75;3.03;;;;;;;17.62;100.00;100301.75;5020410;28;20100;-74
2023/05/30 00:42:33;;;;;;;5.75;3.92;;;;;;;17.68;100.00;100325.47;5000936;28;20454;-73
2023/05/30 00:44:59;;;;;;;7.18;3.95;;;;;;;17.59;100.00;100328.41;5020578;28;20543;-73
2023/05/30 00:47:25;;;;;;;8.07;3.67;;;;;;;17.46;100.00;100302.22;5026177;28;20030;-74
2023/05/30 00:49:51;;;;;;;6.50;3.83;;;;;;;17.52;100.00;100317.09;5022956;28;20037;-74
2023/05/30 00:52:17;;;;;;;11.60;3.90;;;;;;;17.50;100.00;100319.78;5014712;28;20475;-76
2023/05/30 00:54:46;;;;;;;6.05;3.38;;;;;;;17.47;100.00;100322.53;5019031;28;20037;-75
2023/05/30 00:57:12;;;;;;;7.85;3.55;;;;;;;17.38;100.00;100309.56;5013587;28;20038;-74
2023/05/30 00:59:37;;;;;;;6.15;3.70;;;;;;;17.39;100.00;100308.63;5020552;28;20033;-75
2023/05/30 01:02:03;;;;;;;7.57;4.55;;;;;;;17.48;100.00;100326.91;5011585;28;20036;-75
2023/05/30 01:04:29;;;;;;;5.75;3.05;;;;;;;17.47;100.00;100316.38;5018978;28;20434;-75
2023/05/30 01:06:55;;;;;;;6.28;3.28;;;;;;;17.30;100.00;100315.09;5012300;28;20041;-75
2023/05/30 01:09:21;;;;;;;9.23;4.03;;;;;;;17.30;100.00;100317.75;5018158;28;20478;-75
2023/05/30 01:12:08;;;;;;;6.18;3.15;;;;;;;17.18;100.00;100320.72;5004594;28;20067;-75
2023/05/30 01:14:45;;;;;;;5.53;3.33;;;;;;;16.87;100.00;100263.28;5015501;28;20596;-75
2023/05/30 01:17:21;;;;;;;5.70;3.45;;;;;;;17.18;100.00;100312.78;4997574;28;20509;-75
2023/05/30 01:20:07;;;;;;;4.72;3.28;;;;;;;16.98;100.00;100278.91;5013331;28;20069;-76
2023/05/30 01:22:49;;;;;;;4.53;2.88;;;;;;;17.16;100.00;100303.13;5006293;28;20045;-77
2023/05/30 01:25:26;;;;;;;11.07;4.97;;;;;;;17.18;100.00;100309.25;5020024;28;20483;-74
2023/05/30 01:27:54;;;;;;;5.97;4.13;;;;;;;17.14;100.00;100305.84;5019425;28;20031;-75
2023/05/30 01:30:22;;;;;;;8.50;3.42;;;;;;;17.09;100.00;100299.78;5022783;28;20048;-74
2023/05/30 01:32:47;;;;;;;9.45;4.30;;;;;;;16.41;100.00;100208.03;4977187;28;20050;-74
2023/05/30 01:35:25;;;;;;;8.40;4.38;;;;;;;17.04;100.00;100304.34;4980759;28;20057;-75
2023/05/30 01:37:50;;;;;;;4.85;3.03;;;;;;;16.93;100.00;100309.97;4985930;28;20054;-74
2023/05/30 01:40:27;;;;;;;10.95;4.15;;;;;;;16.93;100.00;100309.06;4984181;28;20030;-74
2023/05/30 01:42:58;;;;;;;5.38;3.92;;;;;;;16.87;100.00;100318.09;4984524;28;20043;-75
2023/05/30 01:45:49;;;;;;;4.93;3.28;;;;;;;16.15;100.00;100188.41;4979216;28;20062;-75
2023/05/30 01:48:46;;;;;;;5.90;3.17;;;;;;;16.92;100.00;100316.16;4978430;28;20038;-75
2023/05/30 01:51:19;;;;;;;6.30;3.72;;;;;;;16.67;100.00;100315.94;4903242;29;20044;-75
2023/05/30 01:53:52;;;;;;;8.05;3.85;;;;;;;16.76;100.00;100320.97;4905453;29;20056;-76
2023/05/30 01:56:18;;;;;;;6.38;3.63;;;;;;;16.73;100.00;100323.72;4903742;29;20584;-76
2023/05/30 01:58:49;;;;;;;6.68;3.72;;;;;;;16.76;100.00;100313.03;4897998;29;20110;-73
2023/05/30 02:01:16;;;;;;;6.70;3.65;;;;;;;16.49;100.00;100284.66;4896722;29;20492;-73
2023/05/30 02:03:41;;;;;;;7.57;4.32;;;;;;;16.65;100.00;100313.34;4924667;29;20532;-74
2023/05/30 02:06:07;;;;;;;7.57;3.42;;;;;;;16.37;100.00;100265.50;4934767;28;20035;-73
2023/05/30 02:08:32;;;;;;;8.10;3.08;;;;;;;16.65;100.00;100312.47;4884785;29;20055;-73
2023/05/30 02:10:58;;;;;;;6.13;3.55;;;;;;;16.66;100.00;100330.97;4941016;29;20039;-73
2023/05/30 02:13:23;;;;;;;6.00;3.75;;;;;;;16.62;100.00;100317.81;4934266;29;20485;-73
2023/05/30 02:15:48;;;;;;;8.38;4.43;;;;;;;16.63;100.00;100315.16;4931825;29;20720;-75
2023/05/30 02:18:14;;;;;;;7.47;3.45;;;;;;;16.40;100.00;100299.00;4943619;29;20492;-75
2023/05/30 02:20:39;;;;;;;10.25;4.95;;;;;;;16.26;100.00;100288.75;4933954;29;20538;-74
2023/05/30 02:23:05;;;;;;;6.68;3.97;;;;;;;16.51;100.00;100319.91;4938899;29;20070;-74
2023/05/30 02:25:30;;;;;;;5.45;3.17;;;;;;;16.44;100.00;100313.91;4936616;29;20358;-74
2023/05/30 02:27:56;;;;;;;6.50;3.67;;;;;;;16.45;100.00;100327.09;5011635;28;20071;-75
2023/05/30 02:30:21;;;;;;;5.95;2.83;;;;;;;16.38;100.00;100324.63;5013579;28;20400;-74
2023/05/30 02:32:47;;;;;;;6.30;3.63;;;;;;;16.17;100.00;100287.19;5015787;28;20481;-74
2023/05/30 02:35:13;;;;;;;6.82;3.72;;;;;;;16.30;100.00;100318.69;5012452;28;20037;-76
2023/05/30 02:37:39;;;;;;;4.60;2.50;;;;;;;16.27;100.00;100310.78;5009557;28;20037;-74
2023/05/30 02:40:09;;;;;;;4.82;3.20;;;;;;;15.94;100.00;100273.66;5019448;28;20556;-74
2023/05/30 02:42:35;;;;;;;6.25;3.83;;;;;;;15.97;100.00;100282.41;5029680;28;20121;-76
2023/05/30 02:45:01;;;;;;;5.22;3.28;;;;;;;16.05;100.00;100316.63;5022278;28;20057;-75
2023/05/30 02:47:27;;;;;;;6.25;3.40;;;;;;;16.17;100.00;100320.75;5020478;28;20063;-75
2023/05/30 02:49:52;;;;;;;8.10;3.67;;;;;;;16.25;100.00;100322.31;5011350;28;20058;-75
2023/05/30 02:52:19;;;;;;;5.63;3.78;;;;;;;16.17;100.00;100316.31;5018701;28;20034;-75
2023/05/30 02:54:46;;;;;;;8.93;4.75;;;;;;;16.16;100.00;100316.38;5013597;28;20037;-74
2023/05/30 02:57:12;;;;;;;8.25;4.05;;;;;;;16.19;100.00;100321.59;5013060;28;20029;-74
2023/05/30 02:59:37;;;;;;;7.10;4.25;;;;;;;16.00;100.00;100302.63;5024551;28;20064;-75
2023/05/30 03:02:03;;;;;;;6.68;3.65;;;;;;;16.20;100.00;100337.44;5013244;28;20367;-75
2023/05/30 03:04:29;;;;;;;6.47;3.22;;;;;;;16.22;100.00;100332.09;5021815;28;20656;-76
2023/05/30 03:06:55;;;;;;;5.90;3.67;;;;;;;16.21;100.00;100320.63;4995255;28;20036;-75
2023/05/30 03:09:21;;;;;;;5.65;2.97;;;;;;;16.04;100.00;100309.59;5009704;28;20041;-75
2023/05/30 03:11:47;;;;;;;6.57;2.92;;;;;;;16.18;100.00;100323.38;5011130;28;20037;-74
2023/05/30 03:14:12;;;;;;;6.63;3.55;;;;;;;16.01;100.00;100286.72;5012802;28;20072;-76
2023/05/30 03:16:39;;;;;;;8.30;4.22;;;;;;;16.15;100.00;100319.91;5016941;28;20399;-77
2023/05/30 03:19:05;;;;;;;5.43;2.95;;;;;;;16.22;100.00;100330.34;5018690;28;20502;-74
2023/05/30 03:21:32;;;;;;;6.78;3.45;;;;;;;16.17;100.00;100316.31;5028229;28;20040;-75
2023/05/30 03:23:58;;;;;;;7.18;3.85;;;;;;;16.19;100.00;100326.88;5017470;28;20383;-74
2023/05/30 03:26:24;;;;;;;5.93;3.40;;;;;;;16.24;100.00;100319.69;5026812;28;20030;-75
2023/05/30 03:28:50;;;;;;;6.70;3.60;;;;;;;16.26;100.00;100328.47;5013995;28;20120;-74
2023/05/30 03:31:16;;;;;;;6.85;4.05;;;;;;;16.29;100.00;100333.69;5023021;28;20130;-75
2023/05/30 03:33:41;;;;;;;6.65;3.80;;;;;;;16.31;100.00;100341.59;5020559;28;20040;-74
2023/05/30 03:36:08;;;;;;;6.70;3.70;;;;;;;16.06;100.00;100301.59;5021712;28;20042;-76
2023/05/30 03:38:33;;;;;;;9.38;4.43;;;;;;;16.24;100.00;100348.81;5023448;28;20107;-75
2023/05/30 03:40:59;;;;;;;6.53;4.20;;;;;;;16.37;100.00;100355.56;5020589;28;20026;-75
2023/05/30 03:43:24;;;;;;;8.63;4.40;;;;;;;16.37;100.00;100362.63;4993230;28;20033;-75
2023/05/30 03:45:50;;;;;;;4.57;2.75;;;;;;;16.42;100.00;100366.03;4999117;28;20505;-75
2023/05/30 03:48:15;;;;;;;5.55;3.40;;;;;;;16.41;100.00;100369.56;5019721;28;20046;-75
2023/05/30 03:50:41;;;;;;;4.28;2.95;;;;;;;16.57;100.00;100378.88;5009659;28;20034;-74
2023/05/30 03:53:06;;;;;;;6.30;2.97;;;;;;;16.56;100.00;100378.94;5018253;28;20041;-74
2023/05/30 03:55:31;;;;;;;6.40;3.25;;;;;;;16.64;100.00;100391.06;5012595;28;20052;-74
2023/05/30 03:57:57;;;;;;;6.28;3.67;;;;;;;16.54;100.00;100383.41;5011516;28;20033;-74
2023/05/30 04:00:22;;;;;;;6.50;2.95;;;;;;;16.50;100.00;100358.75;5018346;28;20764;-74
2023/05/30 04:02:48;;;;;;;6.63;3.33;;;;;;;16.81;100.00;100392.44;5018327;28;20049;-76
2023/05/30 04:05:13;;;;;;;5.50;3.28;;;;;;;16.85;100.00;100399.41;5015182;28;20040;-75
2023/05/30 04:07:39;;;;;;;4.95;2.80;;;;;;;16.90;100.00;100397.50;5023546;28;20040;-74
2023/05/30 04:10:05;;;;;;;7.80;3.67;;;;;;;16.86;100.00;100394.06;5015203;28;20357;-75
2023/05/30 04:12:31;;;;;;;6.60;2.80;;;;;;;16.98;100.00;100402.63;5012978;28;20037;-75
2023/05/30 04:14:56;;;;;;;9.38;3.80;;;;;;;16.94;100.00;100393.00;5012205;28;20040;-75
2023/05/30 04:17:22;;;;;;;7.05;4.03;;;;;;;16.94;100.00;100403.59;5020161;28;20049;-75
2023/05/30 04:19:47;;;;;;;6.78;4.07;;;;;;;16.77;100.00;100369.56;5011739;28;20048;-75
2023/05/30 04:22:13;;;;;;;6.13;3.20;;;;;;;16.85;100.00;100383.50;5018140;28;20895;-75
2023/05/30 04:24:38;;;;;;;7.53;4.05;;;;;;;17.04;100.00;100419.25;5016589;28;20031;-75
2023/05/30 04:27:04;;;;;;;6.40;3.38;;;;;;;17.08;100.00;100420.88;4990556;28;20061;-74
2023/05/30 04:29:30;;;;;;;12.45;3.65;;;;;;;17.03;100.00;100404.22;5016379;28;20060;-75
2023/05/30 04:31:56;;;;;;;4.45;3.10;;;;;;;17.11;100.00;100401.34;5017276;28;20037;-75
2023/05/30 04:34:22;;;;;;;5.18;3.40;;;;;;;16.96;100.00;100367.31;5022054;28;20040;-75
2023/05/30 04:36:48;;;;;;;5.35;3.10;;;;;;;17.27;100.00;100401.81;5021686;28;20038;-76
2023/05/30 04:39:14;;;;;;;5.57;4.25;;;;;;;17.36;100.00;100404.22;5013258;28;20040;-76
2023/05/30 04:41:40;;;;;;;7.80;3.58;;;;;;;17.22;100.00;100383.38;5025993;28;20372;-75
2023/05/30 04:44:06;;;;;;;8.35;3.10;;;;;;;17.41;100.00;100394.34;4995673;28;20034;-76
2023/05/30 04:46:32;;;;;;;4.22;2.65;;;;;;;17.52;100.00;100394.03;5001435;28;20138;-76
2023/05/30 04:49:00;;;;;;;7.55;3.60;;;;;;;17.76;100.00;100418.13;5024248;28;20036;-76
2023/05/30 04:51:27;;;;;;;5.32;3.53;;;;;;;17.72;100.00;100404.06;5021527;28;20404;-75
2023/05/30 04:53:53;;;;;;;6.20;4.15;;;;;;;17.86;100.00;100425.81;5018086;28;20044;-76
2023/05/30 04:56:21;;;;;;;4.70;2.85;;;;;;;18.03;100.00;100432.41;5007764;28;20033;-76
2023/05/30 04:58:48;;;;;;;5.13;2.60;;;;;;;18.19;100.00;100435.44;5024064;28;20695;-75
2023/05/30 05:01:14;;;;;;;7.05;3.22;;;;;;;18.10;100.00;100410.91;5029692;28;20080;-75
2023/05/30 05:03:40;;;;;;;4.97;2.78;;;;;;;18.24;100.00;100393.66;5027209;28;20072;-76
2023/05/30 05:06:07;;;;;;;5.13;2.83;;;;;;;18.80;100.00;100440.56;5019369;28;20029;-75
2023/05/30 05:08:36;;;;;;;9.48;5.32;;;;;;;19.16;100.00;100439.31;5029994;28;20046;-76
2023/05/30 05:11:03;;;;;;;4.32;2.97;;;;;;;19.64;100.00;100464.22;5002947;28;20036;-75
2023/05/30 05:13:28;;;;;;;5.60;2.90;;;;;;;19.88;100.00;100430.53;5022321;28;20044;-76
2023/05/30 05:15:55;;;;;;;6.05;3.47;;;;;;;20.32;100.00;100456.34;5028169;28;20041;-78
2023/05/30 05:18:20;;;;;;;5.85;3.58;;;;;;;20.70;100.00;100457.53;5008069;28;20044;-75
2023/05/30 05:20:46;;;;;;;6.00;3.50;;;;;;;21.30;100.00;100465.63;5023302;28;20037;-76
2023/05/30 05:23:11;;;;;;;4.10;2.33;;;;;;;21.14;100.00;100456.56;5022644;28;20219;-76
2023/05/30 05:25:37;;;;;;;14.07;7.93;;;;;;;21.83;100.00;100465.09;5018220;28;20742;-77
2023/05/30 05:28:02;;;;;;;5.28;3.03;;;;;;;21.90;100.00;100474.53;5027315;28;20861;-75
2023/05/30 05:30:28;;;;;;;5.10;3.00;;;;;;;22.22;100.00;100466.88;5029743;28;20035;-77
2023/05/30 05:32:53;;;;;;;5.28;2.70;;;;;;;22.36;100.00;100441.25;5028071;28;20029;-76
2023/05/30 05:35:19;;;;;;;4.68;2.63;;;;;;;22.41;100.00;100482.91;5025184;28;20089;-76
2023/05/30 05:37:44;;;;;;;5.47;3.20;;;;;;;22.34;100.00;100471.63;5017741;28;20034;-76
2023/05/30 05:40:10;;;;;;;4.68;3.10;;;;;;;22.84;100.00;100461.19;5012292;28;20037;-76
2023/05/30 05:42:36;;;;;;;6.82;2.63;;;;;;;23.33;100.00;100489.03;5025406;28;20037;-76
2023/05/30 05:45:01;;;;;;;5.38;2.65;;;;;;;23.59;100.00;100484.13;5025435;28;20073;-76
2023/05/30 05:47:27;;;;;;;5.00;3.08;;;;;;;23.90;100.00;100486.03;5028387;28;20025;-75
2023/05/30 05:49:52;;;;;;;4.25;2.60;;;;;;;23.92;100.00;100484.16;5011431;28;20107;-77
2023/05/30 05:52:19;;;;;;;6.20;3.28;;;;;;;24.23;98.43;100477.09;5016183;28;20399;-76
2023/05/30 05:54:45;;;;;;;5.05;3.00;;;;;;;24.49;93.83;100486.41;5013924;28;20041;-76
2023/05/30 05:57:10;;;;;;;22.83;3.45;;;;;;;24.05;96.08;100457.56;5015725;28;20087;-76
2023/05/30 05:59:36;;;;;;;5.35;2.83;;;;;;;24.27;99.70;100493.88;5009125;28;20411;-76
2023/05/30 06:02:01;;;;;;;7.78;3.58;;;;;;;23.75;94.54;100470.81;5013513;28;20148;-77
2023/05/30 06:04:26;;;;;;;3.92;2.83;;;;;;;23.78;100.00;100484.03;5009544;28;20030;-76
2023/05/30 06:06:52;;;;;;;4.38;3.08;;;;;;;24.14;96.25;100491.91;5024795;28;20036;-76
2023/05/30 06:09:17;;;;;;;4.90;2.65;;;;;;;23.93;99.20;100450.19;5028060;28;20033;-75
2023/05/30 06:11:43;;;;;;;4.45;2.10;;;;;;;24.20;97.22;100488.84;5028279;28;20099;-77
2023/05/30 06:14:08;;;;;;;4.18;2.17;;;;;;;24.41;92.00;100481.41;5026270;28;20073;-77
2023/05/30 06:16:34;;;;;;;6.07;2.53;;;;;;;23.85;95.07;100469.34;5028367;28;20041;-76
2023/05/30 06:18:59;;;;;;;11.77;2.28;;;;;;;24.09;89.10;100456.44;5027254;28;20087;-75
2023/05/30 06:21:25;;;;;;;5.07;2.47;;;;;;;25.18;77.14;100490.47;5013978;28;20490;-78
2023/05/30 06:23:50;;;;;;;3.60;1.45;;;;;;;25.14;78.46;100490.69;5023972;28;20041;-76
2023/05/30 06:26:16;;;;;;;2.65;1.45;;;;;;;24.67;68.80;100470.19;5040058;28;20029;-76
2023/05/30 06:28:41;;;;;;;3.55;1.85;;;;;;;24.82;76.38;100496.16;5028525;28;20124;-77
2023/05/30 06:31:07;;;;;;;6.05;2.30;;;;;;;25.09;73.89;100482.06;5022932;28;20037;-77
2023/05/30 06:33:32;;;;;;;3.10;1.60;;;;;;;24.66;66.75;100489.94;5027182;28;20527;-76
2023/05/30 06:35:57;;;;;;;13.13;1.98;;;;;;;24.42;58.28;100482.31;5009410;28;20037;-77
2023/05/30 06:38:23;;;;;;;4.07;1.25;;;;;;;24.82;56.31;100480.91;5020514;28;20029;-77
2023/05/30 06:40:49;;;;;;;2.90;1.45;;;;;;;24.86;56.13;100486.94;5028050;28;20053;-77
2023/05/30 06:43:14;;;;;;;6.38;1.38;;;;;;;25.24;55.86;100482.03;4992639;28;20045;-78
2023/05/30 06:45:40;;;;;;;4.88;1.85;;;;;;;25.02;54.04;100490.47;5027572;28;20054;-77
2023/05/30 06:48:05;;;;;;;3.25;1.60;;;;;;;25.26;54.56;100484.63;5004058;28;20036;-75
2023/05/30 06:50:31;;;;;;;1.80;1.15;;;;;;;24.88;57.67;100443.91;5010457;28;20050;-76
2023/05/30 06:52:56;;;;;;;2.83;1.00;;;;;;;24.66;55.63;100453.25;5027356;28;20033;-77
2023/05/30 06:55:22;;;;;;;2.83;1.65;;;;;;;24.96;50.99;100488.16;5017411;28;20025;-77
2023/05/30 06:57:53;;;;;;;2.83;1.63;;;;;;;24.67;51.23;100483.63;5026785;28;20425;-77
2023/05/30 07:00:19;;;;;;;3.65;1.75;;;;;;;24.74;51.91;100493.03;5026071;28;20037;-76
2023/05/30 07:02:45;;;;;;;2.90;1.02;;;;;;;25.06;53.91;100465.16;5026559;28;20091;-76
2023/05/30 07:05:11;;;;;;;3.60;1.77;;;;;;;25.10;51.74;100489.16;5022131;28;20062;-76
2023/05/30 07:07:39;;;;;;;3.20;0.90;;;;;;;24.70;52.82;100475.38;5015401;28;20042;-76
2023/05/30 07:10:08;;;;;;;6.38;1.63;;;;;;;25.28;52.81;100469.28;5026609;28;20079;-76
2023/05/30 07:12:33;;;;;;;2.53;1.23;;;;;;;25.58;53.41;100485.34;5026654;28;20033;-77
2023/05/30 07:14:59;;;;;;;4.97;1.55;;;;;;;24.96;54.76;100480.09;5023085;28;20041;-78
2023/05/30 07:17:24;;;;;;;2.80;1.10;;;;;;;24.78;55.69;100483.88;5027026;28;20033;-76
2023/05/30 07:19:50;;;;;;;1.92;0.93;;;;;;;24.82;55.63;100485.41;5014136;28;20080;-76
2023/05/30 07:22:15;;;;;;;3.47;1.30;;;;;;;23.93;55.84;100477.84;5038357;28;20083;-78
2023/05/30 07:24:41;;;;;;;1.02;0.75;;;;;;;24.38;53.28;100494.16;5027134;28;20025;-77
2023/05/30 07:27:06;;;;;;;3.20;1.52;;;;;;;24.73;56.76;100456.44;5007331;28;20037;-76
2023/05/30 07:29:32;;;;;;;2.28;1.20;;;;;;;25.21;52.83;100467.91;5018579;28;20045;-77
2023/05/30 07:31:57;;;;;;;1.17;0.60;;;;;;;25.28;51.27;100488.09;5015025;28;20044;-77
2023/05/30 07:34:23;;;;;;;3.75;1.92;;;;;;;24.93;53.97;100492.84;5026978;28;20037;-77
2023/05/30 07:36:49;;;;;;;2.03;1.00;;;;;;;24.92;52.75;100496.47;5021644;28;20029;-78
2023/05/30 07:39:14;;;;;;;3.00;1.08;;;;;;;24.80;53.20;100503.44;5026722;28;20538;-77
2023/05/30 07:41:40;;;;;;;2.22;1.15;;;;;;;25.18;50.96;100503.03;5014391;28;20663;-78
2023/05/30 07:44:06;;;;;;;2.25;1.25;;;;;;;24.37;49.99;100511.19;5026743;28;20048;-76
2023/05/30 07:46:31;;;;;;;3.50;1.55;;;;;;;24.64;50.81;100493.56;5022700;28;20548;-76
2023/05/30 07:48:57;;;;;;;5.68;1.63;;;;;;;24.47;52.93;100463.28;5026590;28;20071;-76
2023/05/30 07:51:22;;;;;;;3.20;1.85;;;;;;;24.96;51.52;100468.47;5012780;28;20054;-77
2023/05/30 07:53:48;;;;;;;4.63;2.00;;;;;;;24.67;52.05;100503.25;5002222;28;20045;-77
2023/05/30 07:56:13;;;;;;;3.22;1.85;;;;;;;24.55;50.93;100493.22;5025477;28;20033;-78
2023/05/30 07:58:40;;;;;;;2.58;1.60;;;;;;;24.40;50.80;100470.81;5018115;28;20123;-76
2023/05/30 08:01:05;;;;;;;6.25;2.60;;;;;;;25.39;50.70;100495.50;5010774;28;20041;-79
2023/05/30 08:03:31;;;;;;;5.90;1.17;;;;;;;25.47;49.26;100496.78;5024078;28;20041;-76
2023/05/30 08:05:56;;;;;;;4.72;1.88;;;;;;;25.58;49.77;100495.25;5021063;28;20410;-76
2023/05/30 08:08:22;;;;;;;3.50;1.05;;;;;;;25.59;49.89;100473.66;5008806;28;20041;-77
2023/05/30 08:10:48;;;;;;;4.25;2.63;;;;;;;25.11;50.24;100497.13;5024829;28;20040;-77
2023/05/30 08:13:14;;;;;;;3.03;1.45;;;;;;;24.77;51.04;100476.75;5024902;28;20095;-77
2023/05/30 08:15:39;;;;;;;4.32;1.50;;;;;;;25.42;51.00;100493.47;5017923;28;20749;-78
2023/05/30 08:18:05;;;;;;;2.55;1.40;;;;;;;25.81;49.82;100489.31;5022386;28;20045;-77
2023/05/30 08:20:31;;;;;;;2.63;1.75;;;;;;;25.83;49.29;100467.72;5022202;28;20112;-77
2023/05/30 08:22:56;;;;;;;4.03;1.63;;;;;;;25.25;51.56;100445.31;5025804;28;20036;-77
2023/05/30 08:25:30;;;;;;;7.60;2.85;;;;;;;25.56;50.37;100467.59;5008190;28;20064;-77
2023/05/30 08:27:59;;;;;;;2.67;1.27;;;;;;;25.37;51.05;100455.28;5001251;28;20127;-76
2023/05/30 08:30:24;;;;;;;3.17;1.52;;;;;;;25.83;49.81;100476.63;5016138;28;20044;-76
2023/05/30 08:32:50;;;;;;;4.10;2.30;;;;;;;25.66;51.46;100491.13;5025380;28;20033;-76
2023/05/30 08:35:15;;;;;;;2.33;1.40;;;;;;;25.93;51.35;100442.00;5022486;28;20095;-77
2023/05/30 08:37:41;;;;;;;1.95;1.30;;;;;;;26.49;49.97;100477.81;5014736;28;20549;-77
2023/05/30 08:40:11;;;;;;;6.38;1.77;;;;;;;26.51;51.11;100485.81;5011399;28;20112;-77
2023/05/30 08:42:37;;;;;;;2.28;1.10;;;;;;;26.38;49.35;100468.72;5025107;28;20037;-76
2023/05/30 08:45:04;;;;;;;2.30;1.38;;;;;;;26.78;49.23;100456.22;5014903;28;20035;-77
2023/05/30 08:47:30;;;;;;;6.15;1.67;;;;;;;27.15;47.72;100468.03;5018682;28;20060;-77
2023/05/30 08:49:56;;;;;;;3.85;1.80;;;;;;;27.48;48.02;100482.03;5024977;28;20069;-77
2023/05/30 08:52:28;;;;;;;3.35;1.27;;;;;;;25.62;49.42;100460.03;5006527;28;20033;-77
2023/05/30 08:55:16;;;;;;;3.00;1.75;;;;;;;26.33;50.35;100482.47;5024122;28;20114;-77
2023/05/30 08:58:00;;;;;;;4.50;1.52;;;;;;;26.56;48.46;100480.16;5023298;28;20040;-79
2023/05/30 09:00:26;;;;;;;2.40;1.50;;;;;;;26.02;49.30;100471.00;5016220;28;20048;-77
2023/05/30 09:02:55;;;;;;;3.72;1.77;;;;;;;25.93;50.12;100476.94;5025322;28;20116;-76
2023/05/30 09:05:21;;;;;;;3.00;1.10;;;;;;;25.22;50.57;100478.59;5019127;28;20034;-77
2023/05/30 09:07:48;;;;;;;4.47;2.53;;;;;;;26.30;50.14;100471.91;5012355;28;20071;-76
2023/05/30 09:10:15;;;;;;;4.45;2.58;;;;;;;27.20;49.52;100461.50;5018272;28;20499;-78
2023/05/30 09:12:42;;;;;;;4.50;2.03;;;;;;;27.44;47.97;100462.53;5014918;28;20029;-75
2023/05/30 09:15:08;;;;;;;2.20;1.35;;;;;;;27.38;48.13;100451.31;5035486;28;20148;-77
2023/05/30 09:17:34;;;;;;;2.65;1.38;;;;;;;28.09;45.66;100475.00;5017549;28;20029;-78
2023/05/30 09:20:00;;;;;;;5.82;2.05;;;;;;;28.83;46.54;100475.00;5019900;28;20036;-76
2023/05/30 09:22:27;;;;;;;5.88;2.47;;;;;;;28.64;44.72;100470.13;5008216;28;20034;-77
2023/05/30 09:25:03;;;;;;;4.78;2.30;;;;;;;27.88;45.53;100474.72;5018068;28;20082;-77
2023/05/30 09:27:35;;;;;;;3.85;1.67;;;;;;;27.41;45.24;100464.56;5020334;28;20053;-78
2023/05/30 09:30:08;;;;;;;3.92;2.40;;;;;;;27.91;46.42;100463.72;5013189;28;20037;-78
2023/05/30 09:32:36;;;;;;;3.33;1.83;;;;;;;27.36;45.89;100487.28;5025385;28;20051;-78
2023/05/30 09:35:09;;;;;;;2.63;1.63;;;;;;;28.88;44.55;100470.09;5015381;28;20591;-77
2023/05/30 09:37:43;;;;;;;5.53;1.70;;;;;;;28.48;44.78;100472.25;5020608;28;20496;-77
2023/05/30 09:40:16;;;;;;;3.28;1.83;;;;;;;27.82;46.48;100433.81;5008689;28;20057;-77
2023/05/30 09:42:49;;;;;;;9.88;2.55;;;;;;;28.36;44.05;100444.28;5024412;28;20514;-77
2023/05/30 09:45:22;;;;;;;2.05;0.95;;;;;;;27.96;44.22;100458.00;5025707;28;20908;-76
2023/05/30 09:47:49;;;;;;;4.78;1.95;;;;;;;28.55;43.93;100482.47;4992932;28;20048;-76
2023/05/30 09:50:20;;;;;;;2.45;1.48;;;;;;;28.93;44.75;100458.94;5023397;28;20132;-77
2023/05/30 09:52:49;;;;;;;4.95;2.20;;;;;;;30.16;43.99;100460.16;5015507;28;20033;-76
2023/05/30 09:55:15;;;;;;;2.40;1.40;;;;;;;30.22;41.56;100454.22;5023570;28;20029;-76
2023/05/30 09:57:46;;;;;;;3.17;1.98;;;;;;;30.57;42.38;100450.50;5016132;28;20112;-76
2023/05/30 10:00:15;;;;;;;2.40;1.77;;;;;;;29.01;42.78;100457.38;5028103;28;20029;-76
2023/05/30 10:02:43;;;;;;;2.83;1.92;;;;;;;28.83;43.09;100456.94;5024532;28;20025;-76
2023/05/30 10:05:28;;;;;;;7.13;2.13;;;;;;;27.60;45.21;100453.34;5023313;28;20033;-76
2023/05/30 10:07:58;;;;;;;3.47;1.73;;;;;;;27.19;43.89;100454.38;5024118;28;20174;-76
2023/05/30 10:10:24;;;;;;;2.78;1.60;;;;;;;27.32;43.89;100448.06;5039611;28;20063;-77
2023/05/30 10:12:54;;;;;;;3.35;1.92;;;;;;;27.27;42.68;100433.19;5025030;28;20495;-76
2023/05/30 10:15:23;;;;;;;4.05;2.28;;;;;;;27.24;43.14;100411.84;5018045;28;20371;-77
2023/05/30 10:18:03;;;;;;;3.03;1.95;;;;;;;28.50;42.11;100443.28;5015897;28;20113;-76
2023/05/30 10:20:31;;;;;;;3.33;1.85;;;;;;;27.67;40.10;100444.69;5022069;28;20370;-77
2023/05/30 10:22:59;;;;;;;3.40;1.67;;;;;;;28.35;40.17;100429.94;5000199;28;20437;-77
2023/05/30 10:25:27;;;;;;;3.58;1.92;;;;;;;28.36;40.92;100388.47;5028829;28;20033;-77
2023/05/30 10:27:56;;;;;;;1.63;1.20;;;;;;;27.02;40.25;100409.72;5018409;28;20123;-78
2023/05/30 10:30:27;;;;;;;3.50;1.92;;;;;;;27.42;38.94;100434.81;5014752;28;20061;-76
2023/05/30 10:33:09;;;;;;;3.35;2.17;;;;;;;27.68;37.96;100435.66;5005436;28;20398;-77
2023/05/30 10:35:36;;;;;;;4.30;1.83;;;;;;;28.61;37.41;100435.22;5019913;28;20026;-77
2023/05/30 10:38:04;;;;;;;3.40;2.33;;;;;;;27.78;37.88;100433.16;5024752;28;20906;-76
2023/05/30 10:40:51;;;;;;;3.33;1.52;;;;;;;28.62;38.30;100428.88;5028329;28;20029;-77
2023/05/30 10:43:42;;;;;;;3.05;1.42;;;;;;;29.05;37.00;100430.97;5021442;28;20765;-78
2023/05/30 10:46:17;;;;;;;5.47;2.47;;;;;;;28.41;38.23;100436.69;4963060;28;20059;-76
2023/05/30 10:49:06;;;;;;;3.17;1.30;;;;;;;28.98;37.54;100430.59;4965777;28;20057;-76
2023/05/30 10:51:57;;;;;;;2.35;1.20;;;;;;;29.08;38.27;100411.00;4963228;28;20523;-77
2023/05/30 10:54:24;;;;;;;3.03;1.20;;;;;;;27.43;39.46;100409.56;4965723;28;20041;-75
2023/05/30 10:56:51;;;;;;;8.65;1.38;;;;;;;28.07;37.90;100389.75;4965706;28;20086;-76
2023/05/30 10:59:19;;;;;;;3.75;2.17;;;;;;;27.64;39.52;100382.91;4965501;28;20121;-75
2023/05/30 11:02:05;;;;;;;2.83;1.85;;;;;;;28.92;38.44;100406.75;4967981;28;20050;-77
2023/05/30 11:04:35;;;;;;;2.45;1.45;;;;;;;29.64;35.72;100413.75;4965865;28;20038;-76
2023/05/30 11:07:05;;;;;;;2.60;1.20;;;;;;;29.38;36.54;100378.00;4952139;28;20049;-76
2023/05/30 11:09:32;;;;;;;1.55;1.13;;;;;;;28.77;35.24;100397.13;4956238;28;20127;-76
2023/05/30 11:12:00;;;;;;;3.83;2.00;;;;;;;28.74;35.67;100375.75;4964959;28;20427;-76
2023/05/30 11:14:31;;;;;;;1.80;1.17;;;;;;;28.63;36.95;100373.88;4965332;28;20049;-76
2023/05/30 11:17:08;;;;;;;3.08;1.77;;;;;;;29.64;35.04;100394.84;4964405;28;20110;-76
2023/05/30 11:19:40;;;;;;;4.13;1.50;;;;;;;29.00;37.81;100389.94;4964587;28;20057;-77
2023/05/30 11:22:08;;;;;;;2.65;1.70;;;;;;;29.25;38.15;100387.09;4967746;28;20036;-77
2023/05/30 11:24:34;;;;;;;3.55;2.15;;;;;;;28.18;38.45;100403.31;5026700;28;20045;-77